Time;durP1;ratioP1;P1;durP2;ratioP2;P2;SDS_P1;SDS_P2;PMS_P1;PMS_P2;Temp;Humidity;BMP_temperature;BMP_pressure;BME280_temperature;BME280_humidity;BME280_pressure;Samples;Min_cycle;Max_cycle;Signal;HPM_P1;HPM_P2
2022/06/07 00:01:20;;;;;;;25.60;17.77;;;;;;;14.24;78.37;101268.59;4969158;28;20034;-87
2022/06/07 00:03:45;;;;;;;24.75;16.52;;;;;;;14.22;79.00;101267.81;4951249;28;20121;-87
2022/06/07 00:06:10;;;;;;;28.42;17.45;;;;;;;14.21;79.55;101266.06;4946506;28;20059;-87
2022/06/07 00:08:36;;;;;;;25.55;17.33;;;;;;;14.20;80.19;101264.34;4951436;28;20030;-88
2022/06/07 00:11:01;;;;;;;26.90;17.30;;;;;;;14.15;80.62;101263.72;4949869;28;20461;-87
2022/06/07 00:13:26;;;;;;;26.15;16.75;;;;;;;14.17;79.95;101258.31;4965765;28;20049;-87
2022/06/07 00:15:52;;;;;;;28.73;17.77;;;;;;;14.17;80.39;101260.97;4952042;28;20027;-87
2022/06/07 00:18:17;;;;;;;25.30;17.23;;;;;;;14.16;79.29;101259.25;4967578;28;20041;-87
2022/06/07 00:20:43;;;;;;;28.17;17.50;;;;;;;14.15;80.45;101262.84;4964824;28;20030;-87
2022/06/07 00:23:12;;;;;;;26.98;17.75;;;;;;;14.11;80.43;101255.97;4965910;28;20450;-87
2022/06/07 00:25:38;;;;;;;27.02;18.88;;;;;;;14.06;80.78;101250.84;4949459;28;20035;-87
2022/06/07 00:28:04;;;;;;;29.77;18.17;;;;;;;14.00;81.02;101248.50;4970667;28;20458;-88
2022/06/07 00:30:31;;;;;;;28.38;16.75;;;;;;;14.00;81.35;101240.53;4949143;28;20745;-88
2022/06/07 00:32:57;;;;;;;27.17;16.67;;;;;;;14.02;80.74;101254.59;4945858;28;20034;-87
2022/06/07 00:35:23;;;;;;;30.10;18.15;;;;;;;13.99;80.97;101244.13;4945569;28;20034;-88
2022/06/07 00:37:49;;;;;;;34.10;19.63;;;;;;;13.97;81.26;101241.53;4952345;28;20031;-87
2022/06/07 00:40:15;;;;;;;25.90;17.23;;;;;;;13.97;80.61;101222.06;4965681;28;20022;-88
2022/06/07 00:42:41;;;;;;;30.50;20.05;;;;;;;13.99;80.77;101231.69;4970168;28;20035;-88
2022/06/07 00:45:13;;;;;;;27.60;18.95;;;;;;;14.00;80.75;101227.25;4961190;28;20034;-87
2022/06/07 00:47:38;;;;;;;29.08;19.10;;;;;;;14.02;80.81;101234.19;4969176;28;20035;-87
2022/06/07 00:50:06;;;;;;;29.20;18.85;;;;;;;14.08;80.87;101232.16;4951725;28;20492;-87
2022/06/07 00:52:34;;;;;;;29.55;19.73;;;;;;;14.07;80.39;101230.44;4951497;28;20177;-87
2022/06/07 00:55:00;;;;;;;30.85;19.40;;;;;;;14.07;79.77;101233.97;4946404;28;20576;-88
2022/06/07 00:57:26;;;;;;;28.25;18.88;;;;;;;14.04;80.35;101227.00;4951124;28;20070;-88
2022/06/07 00:59:51;;;;;;;26.88;18.02;;;;;;;13.99;79.88;101222.88;4964057;28;20023;-88
2022/06/07 01:02:18;;;;;;;28.52;17.65;;;;;;;13.93;80.18;101217.81;4952724;28;20793;-87
2022/06/07 01:04:44;;;;;;;29.10;18.60;;;;;;;13.85;80.43;101214.66;4967703;28;20038;-87
2022/06/07 01:12:37;;;;;;;27.30;17.95;;;;;;;13.92;79.87;101213.44;4964907;28;20117;-87
2022/06/07 01:15:03;;;;;;;25.23;16.77;;;;;;;13.92;79.73;101211.66;4967947;28;20113;-87
2022/06/07 01:17:29;;;;;;;24.13;16.73;;;;;;;13.94;79.63;101211.56;4952009;28;20276;-87
2022/06/07 01:19:54;;;;;;;25.50;16.48;;;;;;;13.94;79.36;101204.47;4946636;28;20312;-87
2022/06/07 01:22:20;;;;;;;26.17;17.27;;;;;;;13.93;78.76;101193.91;4950667;28;20074;-87
2022/06/07 01:24:45;;;;;;;22.60;15.02;;;;;;;13.99;78.72;101202.47;4966975;28;20522;-87
2022/06/07 01:27:11;;;;;;;22.83;12.48;;;;;;;14.07;78.09;101203.88;4946314;28;20109;-87
2022/06/07 01:29:38;;;;;;;21.38;13.57;;;;;;;14.01;78.14;101200.56;4950381;28;20030;-87
2022/06/07 01:32:05;;;;;;;26.23;12.95;;;;;;;14.01;77.51;101199.72;4952452;28;20044;-88
2022/06/07 01:34:31;;;;;;;19.75;12.45;;;;;;;14.01;77.50;101197.91;4964927;28;20034;-87
2022/06/07 01:36:58;;;;;;;15.05;11.50;;;;;;;13.99;77.25;101189.16;4940930;28;20418;-87
2022/06/07 01:42:08;;;;;;;20.30;12.30;;;;;;;14.00;77.44;101193.53;4969056;28;20053;-87
2022/06/07 01:44:40;;;;;;;20.88;13.80;;;;;;;14.01;77.16;101199.72;4964894;28;20039;-87
2022/06/07 01:47:10;;;;;;;22.10;13.18;;;;;;;13.95;77.47;101192.03;4961340;28;20333;-87
2022/06/07 01:49:36;;;;;;;20.23;12.32;;;;;;;13.92;77.23;101194.84;4963987;28;20042;-87
2022/06/07 01:52:02;;;;;;;17.77;12.38;;;;;;;13.89;77.34;101192.31;4950044;28;20394;-87
2022/06/07 01:54:28;;;;;;;17.98;12.10;;;;;;;13.91;76.83;101186.00;4950282;28;21805;-87
2022/06/07 01:56:53;;;;;;;20.77;12.63;;;;;;;13.88;77.11;101187.94;4966012;28;20031;-87
2022/06/07 01:59:19;;;;;;;16.98;12.48;;;;;;;13.84;77.20;101186.38;4968062;28;20238;-87
2022/06/07 02:01:48;;;;;;;17.73;11.10;;;;;;;13.82;77.22;101177.63;4967815;28;20031;-86
2022/06/07 02:04:14;;;;;;;16.95;11.25;;;;;;;13.76;76.93;101173.47;4949876;28;20402;-87
2022/06/07 02:06:40;;;;;;;14.30;10.82;;;;;;;13.75;77.30;101177.91;4965129;28;20027;-87
2022/06/07 02:09:06;;;;;;;16.38;10.82;;;;;;;13.75;77.30;101182.34;4949337;28;20292;-87
2022/06/07 02:11:34;;;;;;;15.63;10.43;;;;;;;13.73;76.82;101177.13;4966692;28;20033;-87
2022/06/07 02:13:59;;;;;;;17.92;12.07;;;;;;;13.72;77.04;101175.41;4968221;28;20053;-87
2022/06/07 02:16:25;;;;;;;15.77;11.35;;;;;;;13.73;76.78;101182.44;4962448;28;20027;-87
2022/06/07 02:18:51;;;;;;;13.95;10.30;;;;;;;13.69;77.05;101169.38;4945966;28;20027;-87
2022/06/07 02:21:19;;;;;;;15.18;11.00;;;;;;;13.66;76.39;101170.41;4949276;28;20023;-87
2022/06/07 02:23:45;;;;;;;15.90;10.95;;;;;;;13.66;76.43;101167.75;4943144;28;20031;-87
2022/06/07 02:26:21;;;;;;;14.10;10.65;;;;;;;13.67;76.99;101169.44;4952064;28;20438;-87
2022/06/07 02:28:52;;;;;;;18.08;10.82;;;;;;;13.61;76.48;101167.06;4947235;28;20422;-88
2022/06/07 02:31:18;;;;;;;17.92;10.40;;;;;;;13.61;76.47;101177.69;4946025;28;20478;-87
2022/06/07 02:33:45;;;;;;;15.98;10.43;;;;;;;13.52;76.33;101167.50;4965690;28;20066;-87
2022/06/07 02:36:12;;;;;;;13.07;10.13;;;;;;;13.54;76.60;101163.00;4945746;28;20030;-87
2022/06/07 02:38:38;;;;;;;15.93;9.65;;;;;;;13.54;76.32;101163.00;4968089;28;20401;-87
2022/06/07 02:41:07;;;;;;;14.32;9.38;;;;;;;13.52;75.92;101167.50;4965280;28;20069;-88
2022/06/07 02:43:32;;;;;;;11.50;8.82;;;;;;;13.61;75.70;101164.41;4949090;28;20035;-87
2022/06/07 02:45:58;;;;;;;12.55;9.02;;;;;;;13.60;75.83;101160.03;4965637;28;20374;-88
2022/06/07 02:48:24;;;;;;;14.27;9.60;;;;;;;13.55;76.73;101158.53;4950488;28;20035;-88
2022/06/07 02:50:52;;;;;;;11.50;9.25;;;;;;;13.59;75.76;101157.47;4965574;28;20490;-88
2022/06/07 02:53:17;;;;;;;12.02;8.27;;;;;;;13.56;75.43;101152.28;4948399;28;20053;-88
2022/06/07 02:55:42;;;;;;;13.50;8.35;;;;;;;13.58;75.19;101155.75;4963375;28;20505;-87
2022/06/07 02:58:08;;;;;;;11.75;8.57;;;;;;;13.51;76.10;101155.16;4944573;28;20033;-88
2022/06/07 03:00:33;;;;;;;9.77;7.53;;;;;;;13.50;75.61;101153.44;4962272;28;20497;-87
2022/06/07 03:02:58;;;;;;;12.35;8.13;;;;;;;13.45;74.79;101150.16;4966801;28;20033;-87
2022/06/07 03:05:24;;;;;;;14.00;8.25;;;;;;;13.43;75.98;101155.53;4947487;28;20034;-88
2022/06/07 03:07:51;;;;;;;13.30;8.32;;;;;;;13.43;76.05;101149.34;4950831;28;20407;-87
2022/06/07 03:10:16;;;;;;;9.85;7.32;;;;;;;13.47;75.29;101151.78;4964936;28;20027;-87
2022/06/07 03:12:42;;;;;;;9.80;7.82;;;;;;;13.48;75.63;101157.97;4965131;28;20093;-88
2022/06/07 03:15:08;;;;;;;10.18;6.97;;;;;;;13.51;75.52;101165.78;4959516;28;20042;-87
2022/06/07 03:17:34;;;;;;;9.70;7.00;;;;;;;13.52;75.08;101163.06;4952351;28;20058;-87
2022/06/07 03:20:00;;;;;;;10.63;7.18;;;;;;;13.53;74.73;101171.91;4950356;28;20134;-87
2022/06/07 03:22:25;;;;;;;12.95;6.82;;;;;;;13.48;75.27;101163.28;4964420;28;20042;-88
2022/06/07 03:24:50;;;;;;;10.57;6.38;;;;;;;13.43;74.63;101163.50;4953556;28;20506;-88
2022/06/07 03:27:16;;;;;;;16.10;7.55;;;;;;;13.45;75.21;101164.28;4966553;28;20031;-87
2022/06/07 03:29:41;;;;;;;10.70;6.93;;;;;;;13.44;74.97;101181.16;4950767;28;20023;-88
2022/06/07 03:32:08;;;;;;;8.90;6.55;;;;;;;13.43;74.81;101168.81;4944327;28;20030;-87
2022/06/07 03:34:35;;;;;;;10.35;6.03;;;;;;;13.44;74.59;101180.31;4965117;28;20475;-87
2022/06/07 03:37:01;;;;;;;9.05;6.47;;;;;;;13.36;74.95;101164.72;4943404;28;20026;-87
2022/06/07 03:39:26;;;;;;;8.35;6.63;;;;;;;13.40;74.36;101178.72;4952316;28;20047;-88
2022/06/07 03:41:51;;;;;;;9.40;6.60;;;;;;;13.41;74.87;101183.09;4945485;28;20522;-88
2022/06/07 03:44:17;;;;;;;11.82;6.20;;;;;;;13.41;74.66;101185.75;4957577;28;20071;-87
2022/06/07 03:46:44;;;;;;;10.05;6.55;;;;;;;13.47;74.62;101182.78;4967170;28;20041;-87
2022/06/07 03:49:10;;;;;;;8.27;5.82;;;;;;;13.47;74.36;101188.09;4950191;28;20502;-88
2022/06/07 03:51:35;;;;;;;9.00;6.55;;;;;;;13.52;74.71;101199.38;4944707;28;20035;-87
2022/06/07 03:54:03;;;;;;;10.00;6.53;;;;;;;13.43;74.72;101190.06;4967163;28;20086;-88
2022/06/07 03:56:28;;;;;;;8.98;6.20;;;;;;;13.47;74.63;101188.09;4950198;28;20034;-87
2022/06/07 03:58:54;;;;;;;9.52;6.40;;;;;;;13.54;75.11;101184.25;4950785;28;20038;-87
2022/06/07 04:01:21;;;;;;;7.75;6.03;;;;;;;13.57;73.83;101191.19;4962757;28;20043;-87
2022/06/07 04:03:49;;;;;;;10.38;6.00;;;;;;;13.55;74.10;101201.03;4962431;28;20479;-87
2022/06/07 04:06:25;;;;;;;8.15;6.30;;;;;;;13.55;73.90;101198.38;4960825;28;20027;-87
2022/06/07 04:08:52;;;;;;;9.52;6.32;;;;;;;13.61;73.63;101200.75;4969312;28;20034;-87
2022/06/07 04:11:20;;;;;;;9.38;6.55;;;;;;;13.58;73.89;101201.75;4970180;28;20029;-87
2022/06/07 04:13:47;;;;;;;7.70;6.22;;;;;;;13.60;73.98;101193.72;4965717;28;20029;-87
2022/06/07 04:16:14;;;;;;;8.68;5.63;;;;;;;13.65;73.54;101202.31;4968087;28;20035;-87
2022/06/07 04:18:40;;;;;;;7.80;6.10;;;;;;;13.64;73.73;101192.63;4969566;28;20037;-87
2022/06/07 04:21:06;;;;;;;11.25;7.05;;;;;;;13.69;73.29;101202.09;4952269;28;20035;-87
2022/06/07 04:23:32;;;;;;;9.25;6.38;;;;;;;13.66;73.88;101194.31;4967523;28;20054;-87
2022/06/07 04:26:06;;;;;;;9.90;6.70;;;;;;;13.69;73.69;101198.59;4966685;28;20027;-87
2022/06/07 04:28:31;;;;;;;9.05;6.20;;;;;;;13.66;73.98;101193.41;4971046;28;20379;-87
2022/06/07 04:30:56;;;;;;;8.20;6.05;;;;;;;13.69;73.55;101204.75;4954980;28;20038;-87
2022/06/07 04:33:22;;;;;;;8.13;6.20;;;;;;;13.72;73.57;101204.63;4947797;28;20388;-87
2022/06/07 04:35:47;;;;;;;7.65;6.13;;;;;;;13.69;73.40;101187.97;4951501;28;20019;-87
2022/06/07 04:38:13;;;;;;;8.68;5.85;;;;;;;13.70;73.62;101193.19;4961096;28;20556;-87
2022/06/07 04:40:42;;;;;;;9.23;6.38;;;;;;;13.73;73.29;101193.06;4969371;28;20098;-87
2022/06/07 04:43:09;;;;;;;11.45;6.78;;;;;;;13.80;73.99;101201.59;4945155;28;20027;-86
2022/06/07 04:45:37;;;;;;;10.80;7.57;;;;;;;13.86;73.49;101205.78;4969430;28;20398;-87
2022/06/07 04:48:03;;;;;;;12.10;7.20;;;;;;;13.86;73.10;101203.97;4970250;28;20038;-87
2022/06/07 04:50:28;;;;;;;11.15;6.55;;;;;;;13.93;72.94;101200.06;4971859;28;20513;-87
2022/06/07 04:52:54;;;;;;;9.52;6.35;;;;;;;13.97;73.34;101206.09;4949621;28;20022;-85
2022/06/07 04:55:20;;;;;;;10.18;6.30;;;;;;;14.03;72.96;101198.72;4960372;28;20586;-87
2022/06/07 04:57:45;;;;;;;11.85;7.32;;;;;;;14.07;72.35;101206.53;4953386;28;20039;-87
2022/06/07 05:00:14;;;;;;;10.02;7.32;;;;;;;14.12;72.64;101216.00;4949632;28;20141;-87
2022/06/07 05:02:41;;;;;;;10.75;7.82;;;;;;;14.13;72.66;101208.88;4951859;28;20438;-87
2022/06/07 05:05:07;;;;;;;10.63;6.80;;;;;;;14.23;72.46;101211.03;4938814;28;20036;-88
2022/06/07 05:07:32;;;;;;;10.32;7.18;;;;;;;14.23;72.14;101215.47;4966952;28;20035;-87
2022/06/07 05:09:58;;;;;;;8.70;7.63;;;;;;;14.19;71.81;101216.56;4951743;28;20022;-88
2022/06/07 05:12:23;;;;;;;10.95;7.05;;;;;;;14.27;72.37;101217.91;4968350;28;20548;-87
2022/06/07 05:14:49;;;;;;;11.27;7.32;;;;;;;14.36;72.30;101213.06;4965117;28;20497;-88
2022/06/07 05:17:15;;;;;;;12.27;8.15;;;;;;;14.32;71.88;101219.50;4950447;28;20497;-88
2022/06/07 05:19:40;;;;;;;10.43;7.85;;;;;;;14.40;72.24;101223.47;4950785;28;20019;-87
2022/06/07 05:22:06;;;;;;;12.45;8.25;;;;;;;14.43;72.43;101227.78;4967342;28;20081;-88
2022/06/07 05:24:32;;;;;;;11.52;7.70;;;;;;;14.45;72.02;101217.91;4967744;28;20109;-87
2022/06/07 05:27:00;;;;;;;12.30;8.75;;;;;;;14.39;72.68;101224.41;4947770;28;20023;-87
2022/06/07 05:30:00;;;;;;;10.75;7.90;;;;;;;14.41;72.18;101224.31;4953076;28;20414;-87
2022/06/07 05:32:26;;;;;;;13.57;7.63;;;;;;;14.45;72.08;101218.78;4967338;28;20125;-87
2022/06/07 05:34:51;;;;;;;13.23;8.02;;;;;;;14.43;71.95;101220.66;4962161;28;20027;-87
2022/06/07 05:37:19;;;;;;;9.27;7.60;;;;;;;14.44;71.80;101211.72;4965493;28;20074;-87
2022/06/07 05:39:45;;;;;;;13.02;8.40;;;;;;;14.51;72.00;101222.97;4952839;28;20026;-88
2022/06/07 05:42:12;;;;;;;11.88;7.88;;;;;;;14.57;71.44;101220.00;4949723;28;20042;-87
2022/06/07 05:44:38;;;;;;;11.05;8.20;;;;;;;14.62;71.12;101217.97;4967041;28;20478;-87
2022/06/07 05:47:05;;;;;;;13.25;8.90;;;;;;;14.73;71.88;101218.25;4949788;28;20622;-87
2022/06/07 05:49:30;;;;;;;16.90;8.95;;;;;;;14.85;71.37;101223.91;4948624;28;20470;-87
2022/06/07 05:51:56;;;;;;;15.25;10.13;;;;;;;14.87;71.06;101222.88;4964990;28;20038;-88
2022/06/07 05:54:22;;;;;;;15.05;9.45;;;;;;;14.88;71.38;101227.28;4948855;28;20054;-87
2022/06/07 05:56:47;;;;;;;13.38;9.40;;;;;;;14.83;71.10;101220.44;4948224;28;20174;-87
2022/06/07 05:59:13;;;;;;;13.23;9.02;;;;;;;14.89;71.19;101228.13;4970489;28;20371;-87
2022/06/07 06:01:38;;;;;;;13.77;9.38;;;;;;;14.96;70.32;101234.84;4958922;28;20474;-87
2022/06/07 06:04:06;;;;;;;14.40;9.13;;;;;;;14.93;70.28;101219.91;4950113;28;20023;-87
2022/06/07 06:06:33;;;;;;;14.38;9.90;;;;;;;14.99;71.15;101237.38;4967092;28;20244;-88
2022/06/07 06:11:43;;;;;;;13.80;9.77;;;;;;;15.04;70.75;101227.34;4963863;28;20046;-87
2022/06/07 06:14:09;;;;;;;14.65;9.30;;;;;;;15.13;70.35;101236.66;4948116;28;20038;-87
2022/06/07 06:16:36;;;;;;;12.82;9.38;;;;;;;15.36;70.11;101224.75;4946349;28;20508;-88
2022/06/07 06:19:02;;;;;;;15.43;10.20;;;;;;;15.54;69.07;101231.75;4950543;28;20034;-87
2022/06/07 06:21:33;;;;;;;16.02;10.02;;;;;;;15.63;69.87;101228.59;4949116;28;20025;-87
2022/06/07 06:23:59;;;;;;;20.85;11.73;;;;;;;15.71;69.61;101233.50;4959493;28;20446;-87
2022/06/07 06:26:26;;;;;;;16.40;10.43;;;;;;;15.89;69.51;101231.63;4948314;28;20022;-87
2022/06/07 06:28:52;;;;;;;22.38;11.90;;;;;;;16.06;69.28;101234.22;4968062;28;20061;-87
2022/06/07 06:31:19;;;;;;;17.02;11.35;;;;;;;16.14;69.06;101229.31;4965772;28;20129;-86
2022/06/07 06:33:50;;;;;;;18.58;11.27;;;;;;;16.14;68.27;101231.97;4948529;28;20379;-87
2022/06/07 06:36:19;;;;;;;17.92;11.40;;;;;;;16.24;68.75;101224.31;4964523;28;20053;-87
2022/06/07 06:38:44;;;;;;;19.60;11.35;;;;;;;16.25;68.29;101226.88;4964807;28;20042;-87
2022/06/07 06:41:20;;;;;;;18.95;11.98;;;;;;;16.29;68.99;101231.09;4966504;28;20023;-87
2022/06/07 06:43:47;;;;;;;20.55;12.70;;;;;;;16.32;69.50;101230.06;4966859;28;20150;-87
2022/06/07 06:46:19;;;;;;;17.50;13.02;;;;;;;16.25;68.97;101228.69;4962904;28;20074;-87
2022/06/07 06:48:44;;;;;;;15.98;10.52;;;;;;;16.26;68.71;101222.41;4947576;28;20120;-87
2022/06/07 06:51:12;;;;;;;21.77;13.57;;;;;;;16.37;69.12;101225.31;4965262;28;20035;-88
2022/06/07 06:53:41;;;;;;;25.45;14.85;;;;;;;16.42;68.95;101230.38;4948153;28;20074;-87
2022/06/07 06:56:07;;;;;;;22.00;13.77;;;;;;;16.48;69.61;101235.38;4944561;28;20610;-87
2022/06/07 06:58:32;;;;;;;17.00;13.35;;;;;;;16.71;69.24;101229.53;4946243;28;20135;-87
2022/06/07 07:01:03;;;;;;;17.52;12.45;;;;;;;16.71;68.55;101228.66;4966260;28;20022;-86
2022/06/07 07:03:29;;;;;;;20.13;13.43;;;;;;;16.83;67.84;101242.19;4963730;28;20509;-87
2022/06/07 07:05:56;;;;;;;17.98;13.23;;;;;;;16.96;67.56;101239.63;4944001;28;20046;-87
2022/06/07 07:08:25;;;;;;;19.95;12.98;;;;;;;17.06;66.92;101235.44;4948870;28;20127;-88
2022/06/07 07:11:05;;;;;;;19.52;13.90;;;;;;;17.30;67.75;101242.91;4941663;28;20497;-87
2022/06/07 07:13:30;;;;;;;21.17;14.20;;;;;;;17.47;66.59;101239.19;4960285;28;20038;-87
2022/06/07 07:15:56;;;;;;;17.27;12.50;;;;;;;17.29;65.55;101235.84;4962432;28;20030;-87
2022/06/07 07:18:22;;;;;;;17.45;11.93;;;;;;;17.25;67.20;101228.97;4967976;28;20382;-87
2022/06/07 07:20:47;;;;;;;15.10;11.73;;;;;;;17.43;67.90;101241.19;4966097;28;20034;-87
2022/06/07 07:23:12;;;;;;;16.92;12.15;;;;;;;17.42;66.14;101246.63;4949846;28;20026;-87
2022/06/07 07:25:38;;;;;;;20.35;12.80;;;;;;;17.22;66.06;101251.41;4961838;28;20627;-88
2022/06/07 07:28:04;;;;;;;21.27;12.35;;;;;;;17.22;66.18;101250.53;4947851;28;20498;-88
2022/06/07 07:30:30;;;;;;;22.00;13.65;;;;;;;17.12;66.67;101241.38;4965482;28;20106;-89
2022/06/07 07:32:56;;;;;;;20.65;13.88;;;;;;;17.55;65.95;101244.91;4942704;28;20133;-88
2022/06/07 07:35:22;;;;;;;20.63;13.90;;;;;;;17.99;64.58;101246.59;4959458;28;20031;-88
2022/06/07 07:37:48;;;;;;;20.35;13.52;;;;;;;18.74;63.50;101231.78;4966473;28;20034;-87
2022/06/07 07:40:13;;;;;;;17.90;12.95;;;;;;;19.42;61.55;101238.66;4965193;28;20659;-87
2022/06/07 07:42:38;;;;;;;19.02;12.98;;;;;;;19.75;60.19;101232.75;4968462;28;20622;-86
2022/06/07 07:45:04;;;;;;;14.88;12.88;;;;;;;19.76;59.31;101239.81;4969957;28;20035;-88
2022/06/07 07:47:29;;;;;;;18.38;13.70;;;;;;;19.54;59.50;101237.81;4970643;28;20348;-87
2022/06/07 07:49:55;;;;;;;18.02;13.90;;;;;;;19.33;59.95;101232.13;4970108;28;20035;-87
2022/06/07 07:52:21;;;;;;;20.50;14.02;;;;;;;19.39;61.15;101236.19;4967305;28;20031;-89
2022/06/07 07:54:46;;;;;;;21.77;15.48;;;;;;;19.29;61.09;101236.00;4968363;28;20078;-87
2022/06/07 07:57:12;;;;;;;22.85;15.90;;;;;;;19.51;59.39;101232.66;4968885;28;20031;-87
2022/06/07 07:59:37;;;;;;;19.45;15.85;;;;;;;19.38;59.46;101234.50;4952432;28;20114;-88
2022/06/07 08:02:03;;;;;;;20.20;16.30;;;;;;;19.45;59.60;101230.41;4968838;28;20030;-89
2022/06/07 08:04:28;;;;;;;22.00;16.60;;;;;;;19.56;59.49;101237.69;4966041;28;20034;-87
2022/06/07 08:06:54;;;;;;;23.38;16.17;;;;;;;20.28;58.00;101235.97;4950822;28;20018;-89
2022/06/07 08:09:22;;;;;;;21.83;16.08;;;;;;;20.24;57.19;101228.31;4969419;28;20030;-89
2022/06/07 08:11:47;;;;;;;21.15;16.13;;;;;;;20.00;58.97;101225.56;4968984;28;20022;-88
2022/06/07 08:14:17;;;;;;;20.48;15.95;;;;;;;20.18;57.54;101240.31;4951100;28;20046;-89
2022/06/07 08:16:44;;;;;;;20.10;17.00;;;;;;;20.17;58.72;101221.66;4946955;28;20023;-89
2022/06/07 08:19:11;;;;;;;22.67;16.55;;;;;;;20.70;57.02;101231.06;4949661;29;20027;-90
2022/06/07 08:21:37;;;;;;;20.92;16.77;;;;;;;21.03;56.60;101237.50;4949856;28;20523;-90
2022/06/07 08:24:04;;;;;;;20.75;15.75;;;;;;;21.55;54.89;101231.59;4958668;28;20022;-89
2022/06/07 08:26:30;;;;;;;20.83;15.80;;;;;;;21.34;55.61;101228.78;4969616;28;20027;-88
2022/06/07 08:28:56;;;;;;;18.48;15.75;;;;;;;20.73;56.15;101224.59;4954728;28;20042;-88
2022/06/07 08:31:25;;;;;;;20.17;17.08;;;;;;;20.43;56.78;101234.00;4954186;28;20081;-87
2022/06/07 08:39:22;;;;;;;24.52;18.20;;;;;;;20.53;57.89;101229.69;4968132;28;20629;-89
2022/06/07 08:42:19;;;;;;;26.95;19.50;;;;;;;20.49;59.04;101232.72;4949739;28;20034;-88
2022/06/07 08:44:54;;;;;;;24.45;20.15;;;;;;;20.36;57.57;101233.59;4947768;28;20038;-88
2022/06/07 08:47:28;;;;;;;22.80;20.25;;;;;;;20.67;57.56;101231.31;4965119;28;20030;-88
2022/06/07 08:49:55;;;;;;;22.13;19.02;;;;;;;21.75;54.97;101223.75;4952382;28;20026;-89
2022/06/07 08:52:27;;;;;;;21.85;19.70;;;;;;;22.52;52.15;101223.66;4947180;28;20038;-89
2022/06/07 08:54:55;;;;;;;24.85;19.52;;;;;;;22.73;51.32;101215.63;4958083;28;20027;-87
2022/06/07 08:57:24;;;;;;;22.05;19.85;;;;;;;23.16;51.09;101229.81;4967454;28;20561;-88
2022/06/07 08:59:54;;;;;;;23.75;18.25;;;;;;;22.88;50.71;101225.91;4966371;28;20039;-89
2022/06/07 09:02:41;;;;;;;21.13;18.52;;;;;;;22.33;53.17;101230.59;4969030;28;20026;-88
2022/06/07 09:05:11;;;;;;;20.70;18.50;;;;;;;22.48;53.09;101227.63;4965272;28;20027;-88
2022/06/07 09:07:36;;;;;;;22.15;19.00;;;;;;;23.02;50.71;101215.81;4963846;28;20055;-87
2022/06/07 09:13:07;;;;;;;20.02;17.92;;;;;;;23.12;50.94;101214.03;4970314;28;20632;-87
2022/06/07 09:15:35;;;;;;;20.95;18.85;;;;;;;22.99;50.12;101219.66;4950852;28;20505;-88
2022/06/07 09:18:04;;;;;;;20.50;18.33;;;;;;;22.90;49.45;101206.97;4970034;28;20438;-87
2022/06/07 09:20:46;;;;;;;19.50;17.35;;;;;;;22.80;50.57;101217.66;4956252;28;20029;-88
2022/06/07 09:23:23;;;;;;;21.17;18.98;;;;;;;22.98;48.76;101220.63;4952961;28;20041;-87
2022/06/07 09:25:53;;;;;;;20.95;18.30;;;;;;;23.24;48.60;101215.66;4952360;28;20034;-87
2022/06/07 09:28:29;;;;;;;18.38;16.55;;;;;;;23.68;47.74;101213.59;4947609;28;20076;-88
2022/06/07 09:31:17;;;;;;;18.10;15.88;;;;;;;23.65;49.16;101211.19;4967448;28;20649;-89
2022/06/07 09:33:56;;;;;;;20.23;15.95;;;;;;;23.45;48.55;101207.50;4969290;28;20034;-89
2022/06/07 09:36:24;;;;;;;18.42;16.60;;;;;;;23.25;48.25;101221.91;4971747;28;20076;-90
2022/06/07 09:38:55;;;;;;;18.27;15.73;;;;;;;23.43;48.74;101210.34;4969694;28;20042;-90
2022/06/07 09:41:40;;;;;;;21.50;16.65;;;;;;;23.25;47.38;101209.28;4951199;28;20076;-90
2022/06/07 09:44:25;;;;;;;21.00;15.70;;;;;;;23.18;48.75;101216.22;4938577;28;20034;-91
2022/06/07 09:47:13;;;;;;;16.83;15.10;;;;;;;23.09;49.24;101211.63;4968981;28;20065;-90
2022/06/07 09:49:50;;;;;;;16.75;14.15;;;;;;;23.03;48.24;101212.97;4964961;28;20097;-90
2022/06/07 09:52:24;;;;;;;14.82;13.23;;;;;;;22.91;48.01;101212.22;4949520;28;20431;-91
2022/06/07 09:54:54;;;;;;;14.57;12.93;;;;;;;22.98;48.24;101211.69;4952935;28;20482;-90
2022/06/07 09:57:40;;;;;;;18.55;14.15;;;;;;;23.22;47.62;101209.53;4954043;28;20494;-90
2022/06/07 10:00:21;;;;;;;15.25;13.75;;;;;;;23.56;49.02;101207.44;4971649;28;20086;-90
2022/06/07 10:03:14;;;;;;;15.15;13.38;;;;;;;23.92;45.97;101211.41;4954814;28;20082;-90
2022/06/07 10:06:14;;;;;;;14.85;13.35;;;;;;;23.95;47.49;101204.84;4956533;28;20376;-90
2022/06/07 10:08:51;;;;;;;21.13;13.00;;;;;;;23.82;45.71;101205.09;4969712;28;20026;-90
2022/06/07 10:11:28;;;;;;;12.85;11.13;;;;;;;23.68;46.56;101202.78;4943225;28;20090;-90
2022/06/07 10:14:02;;;;;;;12.32;11.13;;;;;;;23.16;46.51;101196.59;4951388;28;20053;-90
2022/06/07 10:16:40;;;;;;;12.60;11.35;;;;;;;23.00;46.45;101198.94;4940143;28;20398;-89
2022/06/07 10:19:29;;;;;;;11.73;10.63;;;;;;;23.37;47.26;101192.03;4947762;28;20117;-90
2022/06/07 10:22:19;;;;;;;12.10;10.57;;;;;;;23.30;46.29;101195.38;4965833;28;20098;-91
2022/06/07 10:25:07;;;;;;;11.82;10.73;;;;;;;23.42;47.47;101192.47;4947524;28;20382;-90
2022/06/07 10:27:41;;;;;;;12.20;11.00;;;;;;;22.92;46.20;101181.56;4967120;28;20059;-89
2022/06/07 10:30:15;;;;;;;12.15;9.93;;;;;;;22.79;46.75;101197.06;4944699;28;20401;-89
2022/06/07 10:32:46;;;;;;;11.90;10.68;;;;;;;23.08;47.45;101191.88;4966591;28;20030;-91
2022/06/07 10:35:24;;;;;;;11.52;10.23;;;;;;;23.71;45.81;101188.19;4946989;28;20022;-90
2022/06/07 10:38:21;;;;;;;13.02;10.18;;;;;;;24.08;44.89;101182.97;4965926;28;20458;-90
2022/06/07 10:40:58;;;;;;;10.32;8.27;;;;;;;24.22;44.45;101176.31;4939747;28;20081;-88
2022/06/07 10:43:29;;;;;;;9.75;8.75;;;;;;;23.85;44.26;101187.78;4963475;28;20057;-90
2022/06/07 10:46:00;;;;;;;9.57;8.68;;;;;;;23.48;44.94;101190.19;4945470;28;20019;-90
2022/06/07 10:48:54;;;;;;;9.47;8.57;;;;;;;23.16;46.48;101183.97;4965625;28;20082;-90
2022/06/07 10:54:26;;;;;;;11.35;10.07;;;;;;;22.70;47.74;101183.50;4967290;28;20564;-90
2022/06/07 10:57:15;;;;;;;11.10;10.07;;;;;;;23.06;46.77;101179.50;4948168;28;20034;-90
2022/06/07 10:59:43;;;;;;;14.15;11.13;;;;;;;23.25;46.14;101171.50;4965521;28;20295;-91
2022/06/07 11:02:34;;;;;;;9.13;8.18;;;;;;;23.71;46.46;101178.22;4952130;28;20073;-91
2022/06/07 11:10:45;;;;;;;6.43;5.38;;;;;;;24.33;45.51;101178.84;4963553;28;20137;-89
2022/06/07 11:13:22;;;;;;;8.98;7.30;;;;;;;24.54;44.23;101176.06;4963221;28;20686;-90
2022/06/07 11:16:06;;;;;;;7.63;6.93;;;;;;;24.45;43.76;101174.22;4945735;28;20269;-90
2022/06/07 11:18:32;;;;;;;9.48;6.90;;;;;;;23.67;43.86;101179.50;4970314;28;20027;-89
2022/06/07 11:21:00;;;;;;;7.47;6.70;;;;;;;23.61;45.04;101177.31;4955173;28;20031;-90
2022/06/07 11:23:31;;;;;;;8.00;6.20;;;;;;;23.48;44.51;101180.25;4953207;28;20134;-90
2022/06/07 11:26:14;;;;;;;6.47;5.75;;;;;;;23.61;45.21;101170.06;4958624;28;20045;-89
2022/06/07 11:28:39;;;;;;;7.07;4.95;;;;;;;23.92;44.58;101178.13;4957874;28;20043;-89
2022/06/07 11:31:17;;;;;;;6.27;4.13;;;;;;;23.58;43.75;101177.59;4954933;28;20034;-89
2022/06/07 11:33:51;;;;;;;6.72;5.18;;;;;;;23.65;44.86;101173.41;4955636;28;20297;-89
2022/06/07 11:36:28;;;;;;;6.70;6.05;;;;;;;23.90;43.97;101172.88;4976739;28;20026;-91
2022/06/07 11:38:54;;;;;;;5.53;5.07;;;;;;;24.40;42.02;101180.88;4970624;28;20061;-92
2022/06/07 11:41:37;;;;;;;7.80;4.65;;;;;;;24.64;42.05;101180.44;4979481;28;20491;-91
2022/06/07 11:44:12;;;;;;;5.03;4.18;;;;;;;24.47;42.36;101175.75;4976565;28;20035;-90
2022/06/07 11:46:49;;;;;;;6.03;5.53;;;;;;;24.42;42.66;101173.47;4978026;28;20046;-93
2022/06/07 11:49:17;;;;;;;6.72;6.13;;;;;;;24.42;41.26;101176.19;4974998;28;20041;-91
2022/06/07 11:51:52;;;;;;;6.07;5.50;;;;;;;24.33;42.11;101166.19;4970961;28;20029;-91